Мантурово

Карта отелей и гостиниц, располагающихся рядом с аэропортом Мантурово :

Мантурово Костромская область 58° 29' 21.5412" N, 44° 45' 18.6588" E
Код аэродрома ИКАО
H258
Код аэродрома RU
Х258
Координаты
N58.48932° E044.75518°
Превышение над уровнем моря
159
Основная полоса
Курс магнитный
Длина основной ВПП
Ширина основной ВПП
Покрытие основной ВПП
Освещение ВПП
Тип: 
Вертодром
Класс аэродрома: 
Принадлежность: 
МО
Статус: 
Недействующий
Сайт: 
E-mail аэродрома: 
Страна: 
Россия
Регион: 
Костромская область
Город: 
Дополнительная информация: 


Найти трансфер

С помощью этой формы Вы можете найти трансфер из аэропорта Мантурово в город, аэропорт или вокзал:

Погода в аэропортах:

Авиационная погода в Витебске

Регион: 
Погода METAR: 
UMII 212300Z 06004G07MPS 4600 -RA OVC009 08/07 Q1000 TEMPO 2000 RA BKN005
Время наблюдения
2022-05-21T23:00:00Z
Температура C
8.0
Точка росы
7.0
Направление ветра
60
Скорость ветра (узлы)
8
Метео видимость
2.86
Облачность
OVC
Нижняя граница облачности (футы)
900
Явления погоды
-RA
Условия полета
IFR
OVC – сплошная облачность;
-RA - слабый дождь;

Авиационная погода в Ивало

Регион: 
Погода METAR: 
EFIV 212250Z AUTO 11003KT 9999 -RA FEW016 BKN035 07/06 Q1011
Время наблюдения
2022-05-21T22:50:00Z
Температура C
7.0
Точка росы
6.0
Направление ветра
110
Скорость ветра (узлы)
3
Метео видимость
6.21
Облачность
FEW
BKN
Нижняя граница облачности (футы)
1600
3500
Явления погоды
-RA
Условия полета
VFR
FEW – незначительная облачность; BKN – значительная (рассеянная, разорванная) облачность;
-RA - слабый дождь;

Авиационная погода в Минске

Регион: 
Погода METAR: 
UMMS 212300Z 26002MPS 240V310 6000 -RA BKN003 OVC016 09/09 Q0998 NOSIG RMK QBB110
Время наблюдения
2022-05-21T23:00:00Z
Температура C
9.0
Точка росы
9.0
Направление ветра
260
Скорость ветра (узлы)
4
Метео видимость
3.73
Облачность
BKN
OVC
Нижняя граница облачности (футы)
300
1600
Явления погоды
-RA
Условия полета
LIFR
Аэропорт подробнее: 
BKN – значительная (рассеянная, разорванная) облачность; OVC – сплошная облачность;
-RA - слабый дождь;

Авиационная погода в Сыктывкаре

Регион: 
Погода METAR: 
UUYY 212300Z 02004MPS 8000 -SHSN SCT008 BKN018CB M00/M01 Q1004 R36/29//51 NOSIG RMK QFE744/0992
Время наблюдения
2022-05-21T23:00:00Z
Температура C
0.0
Точка росы
-1.0
Направление ветра
20
Скорость ветра (узлы)
8
Метео видимость
4.97
Облачность
SCT
BKN
Нижняя граница облачности (футы)
800
1800
Явления погоды
-SHSN
Условия полета
MVFR
Аэропорт подробнее: 
SCT – разбросанная отдельная облачность; BKN – значительная (рассеянная, разорванная) облачность;
-SHSN - слабый ливневой снег;